createdAt,value
2022-12-05T00:01:24.261Z,30.65
2022-12-05T00:03:53.689Z,31.20
2022-12-05T00:06:22.155Z,32.33
2022-12-05T00:08:50.117Z,31.83
2022-12-05T00:11:24.399Z,32.75
2022-12-05T00:13:54.790Z,33.50
2022-12-05T00:16:23.924Z,31.63
2022-12-05T00:18:52.155Z,32.67
2022-12-05T00:21:25.145Z,34.58
2022-12-05T00:23:53.926Z,33.30
2022-12-05T00:26:22.209Z,30.95
2022-12-05T00:28:50.153Z,31.92
2022-12-05T00:31:20.617Z,31.52
2022-12-05T00:33:48.652Z,30.05
2022-12-05T00:36:19.209Z,27.42
2022-12-05T00:38:46.856Z,30.35
2022-12-05T00:41:17.070Z,33.08
2022-12-05T00:43:44.983Z,27.20
2022-12-05T00:46:19.456Z,30.23
2022-12-05T00:48:47.770Z,29.00
2022-12-05T00:51:28.322Z,32.78
2022-12-05T00:54:00.950Z,29.50
2022-12-05T00:56:29.723Z,30.08
2022-12-05T00:58:58.215Z,30.30
2022-12-05T01:01:30.113Z,31.65
2022-12-05T01:03:59.109Z,30.10
2022-12-05T01:06:27.968Z,30.92
2022-12-05T01:08:56.495Z,33.95
2022-12-05T01:11:24.847Z,27.42
2022-12-05T01:13:53.135Z,28.42
2022-12-05T01:16:27.553Z,29.20
2022-12-05T01:18:56.630Z,28.85
2022-12-05T01:21:24.892Z,27.00
2022-12-05T01:23:52.499Z,31.92
2022-12-05T01:26:21.486Z,32.45
2022-12-05T01:28:49.961Z,28.83
2022-12-05T01:31:29.569Z,30.92
2022-12-05T01:33:59.959Z,33.20
2022-12-05T01:36:28.706Z,30.33
2022-12-05T01:38:56.957Z,29.38
2022-12-05T01:41:28.580Z,31.35
2022-12-05T01:44:01.241Z,31.17
2022-12-05T01:46:32.560Z,30.55
2022-12-05T01:49:16.556Z,32.10
2022-12-05T01:51:47.087Z,30.23
2022-12-05T01:54:16.314Z,31.83
2022-12-05T01:56:47.015Z,31.42
2022-12-05T01:59:15.129Z,30.23
2022-12-05T02:01:42.801Z,31.75
2022-12-05T02:04:10.871Z,29.65
2022-12-05T02:06:38.432Z,29.20
2022-12-05T02:09:06.101Z,32.97
2022-12-05T02:11:34.683Z,29.42
2022-12-05T02:14:17.502Z,33.13
2022-12-05T02:17:03.919Z,32.92
2022-12-05T02:19:48.341Z,34.38
2022-12-05T02:22:54.144Z,34.63
2022-12-05T02:25:49.981Z,34.47
2022-12-05T02:28:46.575Z,33.88
2022-12-05T02:31:21.962Z,34.17
2022-12-05T02:33:57.051Z,32.22
2022-12-05T02:36:41.327Z,30.67
2022-12-05T02:39:47.779Z,33.55
2022-12-05T02:42:24.562Z,29.95
2022-12-05T02:44:59.926Z,33.17
2022-12-05T02:47:29.556Z,35.95
2022-12-05T02:49:58.317Z,31.23
2022-12-05T02:52:26.848Z,31.77
2022-12-05T02:54:56.107Z,29.08
2022-12-05T02:57:26.882Z,35.15
2022-12-05T02:59:54.660Z,31.08
2022-12-05T03:02:28.150Z,32.30
2022-12-05T03:05:02.314Z,32.63
2022-12-05T03:07:31.737Z,32.22
2022-12-05T03:10:01.779Z,33.33
2022-12-05T03:12:32.274Z,31.90
2022-12-05T03:15:24.588Z,30.52
2022-12-05T03:18:17.661Z,32.42
2022-12-05T03:20:56.559Z,33.75
2022-12-05T03:23:37.206Z,34.95
2022-12-05T03:26:04.765Z,31.45
2022-12-05T03:28:48.280Z,30.73
2022-12-05T03:31:20.187Z,30.30
2022-12-05T03:33:51.367Z,33.97
2022-12-05T03:36:22.895Z,32.47
2022-12-05T03:38:57.096Z,33.05
2022-12-05T03:41:45.701Z,30.05
2022-12-05T03:44:29.191Z,34.00
2022-12-05T03:46:59.490Z,33.88
2022-12-05T03:49:39.321Z,34.63
2022-12-05T03:52:41.402Z,33.97
2022-12-05T03:55:19.046Z,30.60
2022-12-05T03:58:00.503Z,31.20
2022-12-05T04:00:30.595Z,31.98
2022-12-05T04:03:10.214Z,33.58
2022-12-05T04:05:43.595Z,34.95
2022-12-05T04:08:20.380Z,32.15
2022-12-05T04:10:50.693Z,31.58
2022-12-05T04:13:23.994Z,30.58
2022-12-05T04:16:15.582Z,31.58
2022-12-05T04:18:47.866Z,33.53
2022-12-05T04:21:35.416Z,30.23
2022-12-05T04:24:21.423Z,32.75
2022-12-05T04:26:54.436Z,33.00
2022-12-05T04:29:29.579Z,30.45
2022-12-05T04:32:01.073Z,31.45
2022-12-05T04:34:29.264Z,32.80
2022-12-05T04:37:02.956Z,30.35
2022-12-05T04:39:33.119Z,29.75
2022-12-05T04:42:07.968Z,31.02
2022-12-05T04:44:46.216Z,32.08
2022-12-05T04:47:15.021Z,31.35
2022-12-05T04:49:45.185Z,29.40
2022-12-05T04:52:15.187Z,30.00
2022-12-05T04:54:50.550Z,33.88
2022-12-05T04:58:01.915Z,32.75
2022-12-05T05:00:31.204Z,30.70
2022-12-05T05:03:25.741Z,27.42
2022-12-05T05:05:55.524Z,29.13
2022-12-05T05:08:27.573Z,29.40
2022-12-05T05:11:15.735Z,28.35
2022-12-05T05:13:43.315Z,30.23
2022-12-05T05:16:29.130Z,27.65
2022-12-05T05:18:57.324Z,28.90
2022-12-05T05:21:30.846Z,26.52
2022-12-05T05:23:58.845Z,25.80
2022-12-05T05:26:27.404Z,25.33
2022-12-05T05:28:55.518Z,25.98
2022-12-05T05:31:23.201Z,24.75
2022-12-05T05:33:52.442Z,24.95
2022-12-05T05:36:20.576Z,25.13
2022-12-05T05:38:50.253Z,25.80
2022-12-05T05:41:23.416Z,25.42
2022-12-05T05:43:51.666Z,25.27
2022-12-05T05:46:21.498Z,25.95
2022-12-05T05:48:49.162Z,24.38
2022-12-05T05:51:17.319Z,25.20
2022-12-05T05:53:45.673Z,21.30
2022-12-05T05:56:21.769Z,23.20
2022-12-05T05:58:55.026Z,22.92
2022-12-05T06:01:23.019Z,24.95
2022-12-05T06:03:51.087Z,23.73
2022-12-05T06:06:19.978Z,24.05
2022-12-05T06:08:47.575Z,22.38
2022-12-05T06:11:25.245Z,21.58
2022-12-05T06:13:55.860Z,24.13
2022-12-05T06:16:24.083Z,22.13
2022-12-05T06:18:52.606Z,22.55
2022-12-05T06:21:20.916Z,24.13
2022-12-05T06:23:48.619Z,25.58
2022-12-05T06:26:18.888Z,25.52
2022-12-05T06:28:46.555Z,25.52
2022-12-05T06:31:17.406Z,25.42
2022-12-05T06:33:45.187Z,22.75
2022-12-05T06:36:15.477Z,21.30
2022-12-05T06:38:43.661Z,24.95
2022-12-05T06:41:16.722Z,21.25
2022-12-05T06:43:44.350Z,20.60
2022-12-05T06:46:13.318Z,19.75
2022-12-05T06:48:40.906Z,20.17
2022-12-05T06:51:11.435Z,20.35
2022-12-05T06:53:39.191Z,19.38
2022-12-05T06:56:11.464Z,22.83
2022-12-05T06:58:39.874Z,20.10
2022-12-05T07:01:30.569Z,19.33
2022-12-05T07:03:59.224Z,20.35
2022-12-05T07:06:27.019Z,22.33
2022-12-05T07:08:54.719Z,22.25
2022-12-05T07:11:22.490Z,21.15
2022-12-05T07:13:50.288Z,19.55
2022-12-05T07:16:17.974Z,19.95
2022-12-05T07:18:45.563Z,23.00
2022-12-05T07:21:15.511Z,19.80
2022-12-05T07:23:45.469Z,19.75
2022-12-05T07:26:15.663Z,18.63
2022-12-05T07:28:43.266Z,18.33
2022-12-05T07:31:16.831Z,19.20
2022-12-05T07:33:45.048Z,20.63
2022-12-05T07:36:15.455Z,19.67
2022-12-05T07:38:43.578Z,21.73
2022-12-05T07:41:19.654Z,21.02
2022-12-05T07:43:47.328Z,20.60
2022-12-05T07:46:15.161Z,19.15
2022-12-05T07:48:42.774Z,17.98
2022-12-05T07:51:11.318Z,20.13
2022-12-05T07:53:39.758Z,20.80
2022-12-05T07:56:08.857Z,19.02
2022-12-05T07:58:37.008Z,18.83
2022-12-05T08:01:12.768Z,20.48
2022-12-05T08:03:40.476Z,21.88
2022-12-05T08:06:16.540Z,21.63
2022-12-05T08:08:44.885Z,21.02
2022-12-05T08:11:15.028Z,24.70
2022-12-05T08:13:43.480Z,21.90
2022-12-05T08:16:13.154Z,20.40
2022-12-05T08:18:41.782Z,21.05
2022-12-05T08:21:19.942Z,22.10
2022-12-05T08:23:47.896Z,20.77
2022-12-05T08:26:21.579Z,23.50
2022-12-05T08:28:53.447Z,20.45
2022-12-05T08:31:23.983Z,22.30
2022-12-05T08:33:57.317Z,23.23
2022-12-05T08:36:27.882Z,24.23
2022-12-05T08:39:04.479Z,20.80
2022-12-05T08:41:32.104Z,20.05
2022-12-05T08:44:03.234Z,20.75
2022-12-05T08:46:32.339Z,21.25
2022-12-05T08:49:00.335Z,21.63
2022-12-05T08:51:28.009Z,23.52
2022-12-05T08:53:56.492Z,20.00
2022-12-05T08:56:27.105Z,20.52
2022-12-05T08:59:02.904Z,21.77
2022-12-05T09:01:33.262Z,21.70
2022-12-05T09:04:02.515Z,20.67
2022-12-05T09:06:30.786Z,19.83
2022-12-05T09:09:01.006Z,20.20
2022-12-05T09:11:31.634Z,18.77
2022-12-05T09:14:00.137Z,18.50
2022-12-05T09:16:36.501Z,19.50
2022-12-05T09:19:14.764Z,17.67
2022-12-05T09:21:43.224Z,20.83
2022-12-05T09:24:12.980Z,19.27
2022-12-05T09:26:41.085Z,19.00
2022-12-05T09:29:15.861Z,18.65
2022-12-05T09:31:45.395Z,16.80
2022-12-05T09:34:14.926Z,18.33
2022-12-05T09:36:42.989Z,17.58
2022-12-05T09:39:11.095Z,15.13
2022-12-05T09:42:08.024Z,14.60
2022-12-05T09:44:46.103Z,14.13
2022-12-05T09:47:35.860Z,15.60
2022-12-05T09:50:12.859Z,13.52
2022-12-05T09:52:50.334Z,15.75
2022-12-05T09:55:20.003Z,13.25
2022-12-05T09:57:58.118Z,12.77
2022-12-05T10:00:27.357Z,13.52
2022-12-05T10:03:18.168Z,15.18
2022-12-05T10:05:55.764Z,12.43
2022-12-05T10:08:50.025Z,13.77
2022-12-05T10:11:32.066Z,12.88
2022-12-05T10:14:10.433Z,10.73
2022-12-05T10:16:52.389Z,10.60
2022-12-05T10:19:27.610Z,11.07
2022-12-05T10:22:20.285Z,9.05
2022-12-05T10:24:52.866Z,13.07
2022-12-05T10:27:25.455Z,8.70
2022-12-05T10:30:13.645Z,8.35
2022-12-05T10:32:54.634Z,7.97
2022-12-05T10:35:36.607Z,9.35
2022-12-05T10:38:23.011Z,8.20
2022-12-05T10:40:58.155Z,8.63
2022-12-05T10:43:31.075Z,9.05
2022-12-05T10:45:59.189Z,9.25
2022-12-05T10:48:27.730Z,8.43
2022-12-05T10:50:58.391Z,8.82
2022-12-05T10:53:31.283Z,9.23
2022-12-05T10:58:57.612Z,9.48
2022-12-05T11:01:27.119Z,10.30
2022-12-05T11:04:21.647Z,10.73
2022-12-05T11:06:55.890Z,11.73
2022-12-05T11:09:30.023Z,9.85
2022-12-05T11:12:17.371Z,10.07
2022-12-05T11:15:22.599Z,9.63
2022-12-05T11:17:51.760Z,10.02
2022-12-05T11:20:19.211Z,9.82
2022-12-05T11:22:58.159Z,10.35
2022-12-05T11:25:31.234Z,10.35
2022-12-05T11:28:01.564Z,10.13
2022-12-05T11:30:30.057Z,9.18
2022-12-05T11:33:20.383Z,10.02
2022-12-05T11:35:49.487Z,10.98
2022-12-05T11:38:18.160Z,9.93
2022-12-05T11:40:56.547Z,10.52
2022-12-05T11:43:42.127Z,10.02
2022-12-05T11:46:41.375Z,11.30
2022-12-05T11:49:42.156Z,9.68
2022-12-05T11:52:25.129Z,9.85
2022-12-05T11:55:14.140Z,9.32
2022-12-05T11:58:00.528Z,10.25
2022-12-05T12:01:05.804Z,12.00
2022-12-05T12:03:58.080Z,9.15
2022-12-05T12:07:04.214Z,9.63
2022-12-05T12:09:50.611Z,10.57
2022-12-05T12:12:31.211Z,9.82
2022-12-05T12:15:32.607Z,9.52
2022-12-05T12:18:16.998Z,10.00
2022-12-05T12:21:16.537Z,8.05
2022-12-05T12:23:59.068Z,10.48
2022-12-05T12:26:30.547Z,8.85
2022-12-05T12:29:09.835Z,8.90
2022-12-05T12:31:55.276Z,9.88
2022-12-05T12:34:28.630Z,8.30
2022-12-05T12:37:14.044Z,9.50
2022-12-05T12:40:12.821Z,9.32
2022-12-05T12:42:46.542Z,9.60
2022-12-05T12:45:24.845Z,9.40
2022-12-05T12:48:26.139Z,8.40
2022-12-05T12:50:55.035Z,9.40
2022-12-05T12:53:38.351Z,8.98
2022-12-05T12:56:23.978Z,9.13
2022-12-05T12:58:57.798Z,9.05
2022-12-05T13:01:31.772Z,9.43
2022-12-05T13:04:12.557Z,8.40
2022-12-05T13:06:51.988Z,11.45
2022-12-05T13:09:35.531Z,11.18
2022-12-05T13:12:16.102Z,11.80
2022-12-05T13:15:04.039Z,9.15
2022-12-05T13:17:32.881Z,9.20
2022-12-05T13:20:01.118Z,9.40
2022-12-05T13:22:29.532Z,8.57
2022-12-05T13:24:57.579Z,10.43
2022-12-05T13:27:28.682Z,10.60
2022-12-05T13:30:02.200Z,10.00
2022-12-05T13:32:36.236Z,9.13
2022-12-05T13:35:12.542Z,9.80
2022-12-05T13:38:08.102Z,10.95
2022-12-05T13:40:56.565Z,8.70
2022-12-05T13:43:27.158Z,10.77
2022-12-05T13:46:03.017Z,8.80
2022-12-05T13:48:33.975Z,8.93
2022-12-05T13:51:11.361Z,11.77
2022-12-05T13:53:47.877Z,9.23
2022-12-05T13:56:15.441Z,9.18
2022-12-05T13:58:53.385Z,10.05
2022-12-05T14:01:27.226Z,9.13
2022-12-05T14:03:58.286Z,10.60
2022-12-05T14:06:38.539Z,11.90
2022-12-05T14:09:18.313Z,9.45
2022-12-05T14:12:24.515Z,10.95
2022-12-05T14:14:58.025Z,8.80
2022-12-05T14:17:30.609Z,9.90
2022-12-05T14:20:05.167Z,10.20
2022-12-05T14:22:57.423Z,11.00
2022-12-05T14:25:53.157Z,12.05
2022-12-05T14:28:44.094Z,12.20
2022-12-05T14:31:29.307Z,10.85
2022-12-05T14:34:06.371Z,11.40
2022-12-05T14:36:34.128Z,12.68
2022-12-05T14:39:01.776Z,12.50
2022-12-05T14:41:34.760Z,17.10
2022-12-05T14:44:08.382Z,15.05
2022-12-05T14:46:36.513Z,11.27
2022-12-05T14:49:37.562Z,10.13
2022-12-05T14:52:11.578Z,10.13
2022-12-05T14:54:40.458Z,10.35
2022-12-05T14:57:16.269Z,10.43
2022-12-05T14:59:49.559Z,9.00
2022-12-05T15:02:27.853Z,10.18
2022-12-05T15:05:23.184Z,9.73
2022-12-05T15:07:52.896Z,10.15
2022-12-05T15:10:28.925Z,9.90
2022-12-05T15:13:03.399Z,13.30
2022-12-05T15:15:55.884Z,11.02
2022-12-05T15:18:39.017Z,9.77
2022-12-05T15:21:27.816Z,11.43
2022-12-05T15:24:03.417Z,10.98
2022-12-05T15:26:47.652Z,11.75
2022-12-05T15:29:23.247Z,10.00
2022-12-05T15:31:56.121Z,12.00
2022-12-05T15:34:43.709Z,10.45
2022-12-05T15:37:11.232Z,9.35
2022-12-05T15:40:03.921Z,8.77
2022-12-05T15:42:43.369Z,10.35
2022-12-05T15:45:14.520Z,10.15
2022-12-05T15:47:43.764Z,11.95
2022-12-05T15:50:14.944Z,10.93
2022-12-05T15:52:46.608Z,12.32
2022-12-05T15:55:23.449Z,12.00
2022-12-05T15:57:59.647Z,12.40
2022-12-05T16:00:28.232Z,10.40
2022-12-05T16:03:18.314Z,11.13
2022-12-05T16:06:01.642Z,11.23
2022-12-05T16:08:40.228Z,10.13
2022-12-05T16:11:11.995Z,9.75
2022-12-05T16:14:06.255Z,11.45
2022-12-05T16:16:36.309Z,12.60
2022-12-05T16:19:06.751Z,9.93
2022-12-05T16:21:40.878Z,9.07
2022-12-05T16:24:22.162Z,10.35
2022-12-05T16:27:25.601Z,10.82
2022-12-05T16:30:11.885Z,10.93
2022-12-05T16:32:43.129Z,9.98
2022-12-05T16:35:29.543Z,11.55
2022-12-05T16:38:21.680Z,12.13
2022-12-05T16:40:49.139Z,11.25
2022-12-05T16:43:25.468Z,14.18
2022-12-05T16:45:54.849Z,10.68
2022-12-05T16:48:28.022Z,11.80
2022-12-05T16:51:28.680Z,12.40
2022-12-05T16:53:57.090Z,13.00
2022-12-05T16:56:32.619Z,10.40
2022-12-05T16:59:04.827Z,11.33
2022-12-05T17:01:38.556Z,10.73
2022-12-05T17:04:09.648Z,9.73
2022-12-05T17:06:37.392Z,11.77
2022-12-05T17:09:05.792Z,9.95
2022-12-05T17:11:35.485Z,11.25
2022-12-05T17:14:03.735Z,10.93
2022-12-05T17:16:31.426Z,9.73
2022-12-05T17:18:59.024Z,11.05
2022-12-05T17:21:29.684Z,9.23
2022-12-05T17:23:57.255Z,9.70
2022-12-05T17:26:24.975Z,9.18
2022-12-05T17:28:52.506Z,7.65
2022-12-05T17:31:22.600Z,8.73
2022-12-05T17:33:51.494Z,9.60
2022-12-05T17:36:22.493Z,7.82
2022-12-05T17:38:50.631Z,10.02
2022-12-05T17:41:23.327Z,7.22
2022-12-05T17:43:51.543Z,7.00
2022-12-05T17:46:21.733Z,8.18
2022-12-05T17:48:50.487Z,5.53
2022-12-05T17:51:18.608Z,5.28
2022-12-05T17:53:47.365Z,4.45
2022-12-05T17:56:15.556Z,5.05
2022-12-05T17:58:43.334Z,4.05
2022-12-05T18:01:19.488Z,5.47
2022-12-05T18:03:48.117Z,6.15
2022-12-05T18:06:16.057Z,6.55
2022-12-05T18:08:45.076Z,5.50
2022-12-05T18:11:14.662Z,6.28
2022-12-05T18:13:42.363Z,5.60
2022-12-05T18:16:10.004Z,4.95
2022-12-05T18:18:37.636Z,4.75
2022-12-05T18:21:10.897Z,6.60
2022-12-05T18:23:39.788Z,8.50
2022-12-05T18:26:09.065Z,6.45
2022-12-05T18:28:38.524Z,7.05
2022-12-05T18:31:09.161Z,8.93
2022-12-05T18:33:39.305Z,7.70
2022-12-05T18:36:09.325Z,9.48
2022-12-05T18:38:37.973Z,6.90
2022-12-05T18:41:06.382Z,6.80
2022-12-05T18:43:34.550Z,6.43
2022-12-05T18:46:03.737Z,5.30
2022-12-05T18:48:42.650Z,5.63
2022-12-05T18:51:14.953Z,5.43
2022-12-05T18:53:42.672Z,5.00
2022-12-05T18:56:27.854Z,6.65
2022-12-05T18:59:04.794Z,7.05
2022-12-05T19:01:34.729Z,7.50
2022-12-05T19:04:03.969Z,8.02
2022-12-05T19:06:33.080Z,11.70
2022-12-05T19:09:04.083Z,15.77
2022-12-05T19:11:32.268Z,25.20
2022-12-05T19:14:02.017Z,47.03
2022-12-05T19:16:31.484Z,62.67
2022-12-05T19:19:01.060Z,37.03
2022-12-05T19:21:30.455Z,27.35
2022-12-05T19:23:58.622Z,20.88
2022-12-05T19:26:27.303Z,8.43
2022-12-05T19:28:54.896Z,9.80
2022-12-05T19:31:24.859Z,8.85
2022-12-05T19:33:55.142Z,6.10
2022-12-05T19:36:25.185Z,8.10
2022-12-05T19:38:54.310Z,7.47
2022-12-05T19:41:25.969Z,6.78
2022-12-05T19:43:53.712Z,8.63
2022-12-05T19:46:27.707Z,6.40
2022-12-05T19:49:18.634Z,5.65
2022-12-05T19:51:46.488Z,5.55
2022-12-05T19:54:17.629Z,6.38
2022-12-05T19:56:45.284Z,6.32
2022-12-05T19:59:16.914Z,7.07
2022-12-05T20:01:44.787Z,5.25
2022-12-05T20:04:14.919Z,7.95
2022-12-05T20:06:44.915Z,7.35
2022-12-05T20:09:13.775Z,8.00
2022-12-05T20:11:43.729Z,6.28
2022-12-05T20:14:12.946Z,6.93
2022-12-05T20:16:40.586Z,6.20
2022-12-05T20:19:09.571Z,6.47
2022-12-05T20:21:40.022Z,6.78
2022-12-05T20:24:08.560Z,7.60
2022-12-05T20:26:38.666Z,6.68
2022-12-05T20:29:07.722Z,5.97
2022-12-05T20:31:38.094Z,8.30
2022-12-05T20:34:06.772Z,7.40
2022-12-05T20:36:35.408Z,7.93
2022-12-05T20:39:06.509Z,7.03
2022-12-05T20:41:34.571Z,7.20
2022-12-05T20:44:04.591Z,7.47
2022-12-05T20:46:32.815Z,8.98
2022-12-05T20:49:00.798Z,6.88
2022-12-05T20:51:31.130Z,7.95
2022-12-05T20:54:00.748Z,8.98
2022-12-05T20:56:31.510Z,8.23
2022-12-05T20:59:01.095Z,11.10
2022-12-05T21:01:32.167Z,8.40
2022-12-05T21:04:00.290Z,8.32
2022-12-05T21:06:40.339Z,8.85
2022-12-05T21:09:15.363Z,6.60
2022-12-05T21:11:43.224Z,6.13
2022-12-05T21:14:11.443Z,7.15
2022-12-05T21:16:39.052Z,6.22
2022-12-05T21:19:06.732Z,5.60
2022-12-05T21:21:34.419Z,6.45
2022-12-05T21:24:03.395Z,7.28
2022-12-05T21:26:33.506Z,9.57
2022-12-05T21:29:01.915Z,7.03
2022-12-05T21:31:35.279Z,8.15
2022-12-05T21:34:06.297Z,7.25
2022-12-05T21:36:36.028Z,7.72
2022-12-05T21:39:03.797Z,7.75
2022-12-05T21:41:31.634Z,6.28
2022-12-05T21:43:59.785Z,8.57
2022-12-05T21:46:27.571Z,5.93
2022-12-05T21:48:55.875Z,6.20
2022-12-05T21:51:23.966Z,6.50
2022-12-05T21:53:51.975Z,7.57
2022-12-05T21:56:23.004Z,8.40
2022-12-05T21:58:51.467Z,9.15
2022-12-05T22:01:22.081Z,9.07
2022-12-05T22:03:52.586Z,7.22
2022-12-05T22:06:20.414Z,7.43
2022-12-05T22:08:48.067Z,7.63
2022-12-05T22:11:18.538Z,8.93
2022-12-05T22:13:47.052Z,6.55
2022-12-05T22:16:14.983Z,8.65
2022-12-05T22:18:43.156Z,8.25
2022-12-05T22:21:19.512Z,6.90
2022-12-05T22:23:47.880Z,9.57
2022-12-05T22:26:22.474Z,8.93
2022-12-05T22:28:54.376Z,7.78
2022-12-05T22:31:22.528Z,7.07
2022-12-05T22:33:50.550Z,7.05
2022-12-05T22:36:19.023Z,7.65
2022-12-05T22:38:47.495Z,7.03
2022-12-05T22:41:20.577Z,6.90
2022-12-05T22:43:49.019Z,7.13
2022-12-05T22:46:18.360Z,6.55
2022-12-05T22:48:46.870Z,7.30
2022-12-05T22:51:14.915Z,6.07
2022-12-05T22:53:43.680Z,7.05
2022-12-05T22:56:18.823Z,5.53
2022-12-05T22:58:46.938Z,6.22
2022-12-05T23:01:24.170Z,5.50
2022-12-05T23:04:04.958Z,5.18
2022-12-05T23:06:33.972Z,6.85
2022-12-05T23:09:02.303Z,5.57
2022-12-05T23:11:32.243Z,5.90
2022-12-05T23:14:02.236Z,6.90
2022-12-05T23:16:32.223Z,5.30
2022-12-05T23:19:03.470Z,4.00
2022-12-05T23:21:35.553Z,7.32
2022-12-05T23:24:05.466Z,5.32
2022-12-05T23:26:35.813Z,5.82
2022-12-05T23:29:03.779Z,4.93
2022-12-05T23:31:31.597Z,6.95
2022-12-05T23:34:03.221Z,5.18
2022-12-05T23:36:33.100Z,5.03
2022-12-05T23:39:01.229Z,6.13
2022-12-05T23:41:29.125Z,5.80
2022-12-05T23:43:57.205Z,4.32
2022-12-05T23:46:28.008Z,6.70
2022-12-05T23:48:58.091Z,5.47
2022-12-05T23:51:28.024Z,4.05
2022-12-05T23:53:58.104Z,5.85
2022-12-05T23:56:31.274Z,5.80
2022-12-05T23:58:59.542Z,5.75
